createdAt,value
2019-03-08T00:00:21.173Z,58.96
2019-03-08T00:02:48.803Z,58.84
2019-03-08T00:05:16.821Z,59.52
2019-03-08T00:07:44.467Z,60.07
2019-03-08T00:10:12.124Z,59.01
2019-03-08T00:12:39.754Z,58.44
2019-03-08T00:15:07.409Z,57.75
2019-03-08T00:17:35.052Z,58.32
2019-03-08T00:20:02.684Z,58.55
2019-03-08T00:22:30.331Z,58.81
2019-03-08T00:24:57.987Z,59.17
2019-03-08T00:27:25.639Z,58.75
2019-03-08T00:29:53.363Z,58.67
2019-03-08T00:32:21.018Z,59.14
2019-03-08T00:34:48.658Z,58.69
2019-03-08T00:37:16.473Z,59.12
2019-03-08T00:39:44.106Z,58.87
2019-03-08T00:42:11.734Z,58.74
2019-03-08T00:44:39.380Z,59.31
2019-03-08T00:47:07.032Z,59.28
2019-03-08T00:49:34.663Z,58.22
2019-03-08T00:52:02.321Z,58.47
2019-03-08T00:54:30.235Z,58.67
2019-03-08T00:56:57.870Z,58.92
2019-03-08T00:59:25.503Z,58.32
2019-03-08T01:01:53.142Z,58.63
2019-03-08T01:04:20.781Z,58.20
2019-03-08T01:06:48.424Z,58.35
2019-03-08T01:09:16.442Z,58.77
2019-03-08T01:11:45.340Z,58.14
2019-03-08T01:14:13.203Z,58.16
2019-03-08T01:16:40.842Z,58.49
2019-03-08T01:19:08.477Z,59.12
2019-03-08T01:21:36.116Z,59.87
2019-03-08T01:24:03.755Z,59.44
2019-03-08T01:26:31.533Z,59.71
2019-03-08T01:28:59.506Z,59.84
2019-03-08T01:31:27.187Z,60.05
2019-03-08T01:33:54.832Z,60.10
2019-03-08T01:36:22.473Z,60.20
2019-03-08T01:38:50.126Z,60.51
2019-03-08T01:41:18.042Z,60.24
2019-03-08T01:43:45.671Z,60.21
2019-03-08T01:46:13.314Z,60.12
2019-03-08T01:48:40.951Z,59.52
2019-03-08T01:51:08.590Z,60.37
2019-03-08T01:53:36.231Z,60.21
2019-03-08T01:56:03.870Z,60.80
2019-03-08T01:58:31.515Z,60.86
2019-03-08T02:00:59.189Z,60.00
2019-03-08T02:03:26.901Z,61.05
2019-03-08T02:05:54.545Z,61.21
2019-03-08T02:08:22.186Z,60.72
2019-03-08T02:10:49.829Z,60.26
2019-03-08T02:13:17.945Z,60.16
2019-03-08T02:15:45.649Z,60.40
2019-03-08T02:18:13.402Z,59.90
2019-03-08T02:20:41.287Z,58.14
2019-03-08T02:23:08.931Z,58.19
2019-03-08T02:25:36.588Z,57.80
2019-03-08T02:28:04.402Z,58.43
2019-03-08T02:30:32.415Z,56.14
2019-03-08T02:33:00.106Z,57.08
2019-03-08T02:35:27.743Z,56.49
2019-03-08T02:37:55.373Z,56.27
2019-03-08T02:40:23.019Z,55.63
2019-03-08T02:42:50.707Z,55.51
2019-03-08T02:45:18.675Z,54.64
2019-03-08T02:47:46.338Z,54.85
2019-03-08T02:50:14.002Z,54.45
2019-03-08T02:52:41.713Z,54.44
2019-03-08T02:55:09.366Z,54.86
2019-03-08T02:57:37.010Z,54.70
2019-03-08T03:00:04.935Z,55.08
2019-03-08T03:02:32.588Z,55.11
2019-03-08T03:05:00.388Z,54.58
2019-03-08T03:07:28.145Z,53.57
2019-03-08T03:09:55.793Z,53.87
2019-03-08T03:12:23.439Z,54.32
2019-03-08T03:14:51.199Z,54.23
2019-03-08T03:17:18.915Z,53.59
2019-03-08T03:19:46.678Z,54.01
2019-03-08T03:22:14.309Z,53.52
2019-03-08T03:24:41.952Z,53.91
2019-03-08T03:27:09.594Z,54.63
2019-03-08T03:29:37.238Z,54.96
2019-03-08T03:32:05.269Z,54.72
2019-03-08T03:34:32.911Z,55.35
2019-03-08T03:37:00.555Z,55.67
2019-03-08T03:39:28.181Z,55.60
2019-03-08T03:41:55.823Z,56.28
2019-03-08T03:44:23.478Z,55.92
2019-03-08T03:46:51.135Z,56.00
2019-03-08T03:49:18.864Z,56.80
2019-03-08T03:51:46.512Z,56.72
2019-03-08T03:54:14.149Z,56.46
2019-03-08T03:56:41.782Z,56.23
2019-03-08T03:59:09.415Z,56.15
2019-03-08T04:01:40.824Z,56.40
2019-03-08T04:04:08.468Z,57.19
2019-03-08T04:06:36.934Z,55.35
2019-03-08T04:09:04.736Z,55.95
2019-03-08T04:11:32.396Z,55.92
2019-03-08T04:14:00.030Z,56.37
2019-03-08T04:16:27.686Z,54.54
2019-03-08T04:18:55.516Z,55.43
2019-03-08T04:21:23.162Z,55.63
2019-03-08T04:23:50.794Z,55.59
2019-03-08T04:26:18.455Z,54.91
2019-03-08T04:28:46.115Z,55.53
2019-03-08T04:31:13.792Z,55.60
2019-03-08T04:33:41.443Z,55.30
2019-03-08T04:36:09.086Z,55.88
2019-03-08T04:38:36.726Z,55.90
2019-03-08T04:41:04.378Z,54.24
2019-03-08T04:43:32.050Z,55.02
2019-03-08T04:45:59.690Z,54.88
2019-03-08T04:48:27.416Z,54.37
2019-03-08T04:50:55.342Z,54.72
2019-03-08T04:53:22.981Z,53.59
2019-03-08T04:55:50.624Z,54.42
2019-03-08T04:58:18.267Z,54.07
2019-03-08T05:00:45.921Z,54.28
2019-03-08T05:03:13.577Z,54.15
2019-03-08T05:05:41.244Z,54.29
2019-03-08T05:08:08.902Z,53.65
2019-03-08T05:10:36.534Z,53.78
2019-03-08T05:13:04.188Z,54.34
2019-03-08T05:15:31.842Z,54.35
2019-03-08T05:17:59.574Z,53.10
2019-03-08T05:20:27.224Z,52.89
2019-03-08T05:22:55.156Z,54.13
2019-03-08T05:25:22.798Z,53.87
2019-03-08T05:27:50.427Z,53.42
2019-03-08T05:30:18.097Z,54.20
2019-03-08T05:32:45.752Z,53.78
2019-03-08T05:35:13.398Z,54.14
2019-03-08T05:37:41.037Z,55.14
2019-03-08T05:40:09.055Z,55.23
2019-03-08T05:42:36.703Z,54.92
2019-03-08T05:45:04.350Z,54.80
2019-03-08T05:47:31.983Z,55.27
2019-03-08T05:49:59.662Z,54.90
2019-03-08T05:52:27.310Z,55.38
2019-03-08T05:54:54.962Z,54.01
2019-03-08T05:57:22.617Z,54.24
2019-03-08T05:59:50.260Z,54.11
2019-03-08T06:02:17.899Z,54.74
2019-03-08T06:04:45.607Z,54.12
2019-03-08T06:07:13.265Z,54.01
2019-03-08T06:09:40.906Z,53.60
2019-03-08T06:12:08.831Z,54.18
2019-03-08T06:14:36.465Z,53.57
2019-03-08T06:17:04.093Z,53.65
2019-03-08T06:19:31.775Z,53.76
2019-03-08T06:21:59.431Z,54.02
2019-03-08T06:24:27.071Z,53.96
2019-03-08T06:26:55.203Z,53.61
2019-03-08T06:29:23.151Z,54.23
2019-03-08T06:31:50.808Z,54.54
2019-03-08T06:34:18.442Z,54.89
2019-03-08T06:36:46.094Z,55.09
2019-03-08T06:39:13.742Z,54.79
2019-03-08T06:41:41.376Z,54.83
2019-03-08T06:44:09.031Z,55.27
2019-03-08T06:46:37.046Z,54.46
2019-03-08T06:49:04.695Z,53.49
2019-03-08T06:51:32.339Z,54.15
2019-03-08T06:53:59.978Z,53.23
2019-03-08T06:56:27.610Z,52.87
2019-03-08T06:59:15.123Z,51.37
2019-03-08T07:01:43.229Z,52.21
2019-03-08T07:04:10.890Z,52.18
2019-03-08T07:06:38.552Z,51.98
2019-03-08T07:09:06.201Z,51.43
2019-03-08T07:11:33.890Z,51.82
2019-03-08T07:14:01.535Z,51.02
2019-03-08T07:16:29.167Z,50.41
2019-03-08T07:18:56.816Z,50.96
2019-03-08T07:21:29.938Z,50.05
2019-03-08T07:24:04.209Z,49.67
2019-03-08T07:26:40.660Z,48.30
2019-03-08T07:29:20.100Z,48.82
2019-03-08T07:32:00.275Z,49.13
2019-03-08T07:34:39.074Z,50.00
2019-03-08T07:37:21.282Z,49.92
2019-03-08T07:39:57.555Z,49.84
2019-03-08T07:42:35.563Z,49.72
2019-03-08T07:45:14.995Z,49.39
2019-03-08T07:47:52.061Z,49.40
2019-03-08T07:50:42.842Z,49.48
2019-03-08T07:53:21.488Z,48.47
2019-03-08T07:56:07.320Z,49.48
2019-03-08T07:58:47.648Z,48.81
2019-03-08T08:01:25.954Z,49.31
2019-03-08T08:04:01.312Z,48.63
2019-03-08T08:06:35.927Z,48.99
2019-03-08T08:09:12.828Z,48.17
2019-03-08T08:11:53.976Z,48.34
2019-03-08T08:14:27.797Z,47.64
2019-03-08T08:17:08.042Z,48.30
2019-03-08T08:19:40.870Z,48.20
2019-03-08T08:22:20.177Z,48.09
2019-03-08T08:24:58.916Z,47.89
2019-03-08T08:27:51.531Z,48.38
2019-03-08T08:30:32.462Z,48.79
2019-03-08T08:33:11.530Z,49.23
2019-03-08T08:35:44.525Z,48.88
2019-03-08T08:38:17.470Z,49.18
2019-03-08T08:40:53.782Z,48.37
2019-03-08T08:43:41.400Z,48.53
2019-03-08T08:46:14.373Z,48.44
2019-03-08T08:49:01.989Z,48.98
2019-03-08T08:51:41.213Z,48.74
2019-03-08T08:54:14.054Z,49.04
2019-03-08T08:57:02.795Z,49.13
2019-03-08T08:59:36.309Z,49.02
2019-03-08T09:02:12.872Z,48.57
2019-03-08T09:04:47.392Z,48.66
2019-03-08T09:07:23.970Z,48.35
2019-03-08T09:10:01.767Z,48.40
2019-03-08T09:12:48.871Z,48.47
2019-03-08T09:15:23.854Z,48.52
2019-03-08T09:18:00.288Z,48.86
2019-03-08T09:20:41.167Z,48.46
2019-03-08T09:23:17.416Z,48.56
2019-03-08T09:25:52.668Z,49.17
2019-03-08T09:28:32.428Z,48.93
2019-03-08T09:31:12.881Z,48.76
2019-03-08T09:33:49.744Z,49.29
2019-03-08T09:36:22.642Z,48.89
2019-03-08T09:39:06.560Z,49.06
2019-03-08T09:41:40.578Z,48.84
2019-03-08T09:44:22.502Z,49.28
2019-03-08T09:46:55.278Z,49.60
2019-03-08T09:49:35.906Z,48.98
2019-03-08T09:52:15.141Z,49.43
2019-03-08T09:54:48.523Z,49.37
2019-03-08T09:57:40.147Z,49.08
2019-03-08T10:02:54.703Z,49.09
2019-03-08T10:08:09.083Z,49.23
2019-03-08T10:13:23.009Z,49.34
2019-03-08T10:15:55.170Z,49.84
2019-03-08T10:18:30.917Z,49.92
2019-03-08T10:21:04.118Z,49.67
2019-03-08T10:23:37.065Z,49.25
2019-03-08T10:26:12.142Z,49.69
2019-03-08T10:28:48.499Z,49.73
2019-03-08T10:31:22.678Z,50.09
2019-03-08T10:33:55.585Z,49.93
2019-03-08T10:36:37.418Z,50.14
2019-03-08T10:39:12.309Z,49.95
2019-03-08T10:41:47.067Z,49.98
2019-03-08T10:46:48.936Z,50.12
2019-03-08T10:49:36.721Z,49.86
2019-03-08T10:52:17.390Z,49.20
2019-03-08T10:54:49.099Z,50.13
2019-03-08T10:57:29.876Z,49.25
2019-03-08T11:00:07.947Z,49.47
2019-03-08T11:02:48.250Z,49.39
2019-03-08T11:08:05.003Z,48.94
2019-03-08T11:10:39.999Z,49.64
2019-03-08T11:13:25.891Z,49.15
2019-03-08T11:16:01.548Z,49.83
2019-03-08T11:21:00.442Z,50.19
2019-03-08T11:23:37.007Z,50.77
2019-03-08T11:26:10.096Z,50.76
2019-03-08T11:28:45.142Z,50.82
2019-03-08T11:31:18.388Z,51.18
2019-03-08T11:33:58.227Z,51.78
2019-03-08T11:38:59.503Z,54.25
2019-03-08T11:41:32.014Z,54.21
2019-03-08T11:44:10.945Z,54.00
2019-03-08T11:46:57.655Z,54.40
2019-03-08T11:49:37.095Z,54.48
2019-03-08T11:52:13.120Z,54.70
2019-03-08T11:54:45.973Z,54.43
2019-03-08T11:57:22.719Z,54.41
2019-03-08T12:00:02.161Z,54.83
2019-03-08T12:02:43.736Z,54.61
2019-03-08T12:05:18.459Z,55.22
2019-03-08T12:07:53.400Z,55.05
2019-03-08T12:10:26.466Z,55.33
2019-03-08T12:13:13.211Z,55.41
2019-03-08T12:16:02.183Z,56.19
2019-03-08T12:18:37.791Z,56.72
2019-03-08T12:21:17.650Z,57.32
2019-03-08T12:23:52.385Z,57.46
2019-03-08T12:26:25.348Z,57.53
2019-03-08T12:29:00.606Z,57.90
2019-03-08T12:31:40.775Z,57.98
2019-03-08T12:34:18.286Z,57.47
2019-03-08T12:36:51.854Z,57.70
2019-03-08T12:39:38.543Z,57.45
2019-03-08T12:42:11.451Z,57.01
2019-03-08T12:44:49.369Z,57.81
2019-03-08T12:47:27.937Z,61.18
2019-03-08T12:50:04.645Z,62.89
2019-03-08T12:52:44.610Z,63.28
2019-03-08T12:55:17.481Z,64.06
2019-03-08T12:57:50.437Z,63.90
2019-03-08T13:00:29.602Z,62.79
2019-03-08T13:03:08.958Z,63.22
2019-03-08T13:05:53.325Z,63.34
2019-03-08T13:08:36.536Z,63.71
2019-03-08T13:11:04.191Z,62.04
2019-03-08T13:13:31.855Z,61.60
2019-03-08T13:15:59.506Z,61.70
2019-03-08T13:18:27.556Z,60.41
2019-03-08T13:20:55.194Z,60.89
2019-03-08T13:23:22.870Z,60.89
2019-03-08T13:25:50.568Z,61.14
2019-03-08T13:28:18.211Z,60.92
2019-03-08T13:30:45.850Z,59.98
2019-03-08T13:33:13.487Z,59.80
2019-03-08T13:35:41.139Z,57.84
2019-03-08T13:38:08.783Z,57.48
2019-03-08T13:40:36.427Z,56.62
2019-03-08T13:43:04.065Z,56.40
2019-03-08T13:45:31.728Z,56.27
2019-03-08T13:47:59.445Z,56.85
2019-03-08T13:50:27.402Z,57.06
2019-03-08T13:52:55.133Z,56.77
2019-03-08T13:55:22.820Z,56.47
2019-03-08T13:57:50.468Z,56.44
2019-03-08T14:00:18.124Z,56.65
2019-03-08T14:02:45.759Z,55.99
2019-03-08T14:05:13.394Z,56.69
2019-03-08T14:07:41.069Z,56.38
2019-03-08T14:10:08.725Z,56.33
2019-03-08T14:12:36.379Z,56.43
2019-03-08T14:15:04.027Z,57.19
2019-03-08T14:17:31.705Z,56.55
2019-03-08T14:19:59.359Z,56.65
2019-03-08T14:22:27.397Z,56.70
2019-03-08T14:24:55.151Z,55.85
2019-03-08T14:27:22.810Z,55.99
2019-03-08T14:29:50.459Z,55.75
2019-03-08T14:32:21.293Z,55.69
2019-03-08T14:34:49.597Z,55.60
2019-03-08T14:37:19.861Z,55.79
2019-03-08T14:39:47.634Z,55.51
2019-03-08T14:42:20.501Z,56.00
2019-03-08T14:44:53.612Z,55.88
2019-03-08T14:47:25.099Z,55.73
2019-03-08T14:49:55.353Z,55.18
2019-03-08T14:52:22.664Z,55.68
2019-03-08T14:54:50.485Z,55.55
2019-03-08T14:57:26.899Z,55.25
2019-03-08T14:59:49.314Z,55.37
2019-03-08T15:02:16.872Z,55.02
2019-03-08T15:04:44.507Z,55.12
2019-03-08T15:07:12.152Z,54.97
2019-03-08T15:09:39.827Z,55.28
2019-03-08T15:12:13.612Z,55.44
2019-03-08T15:14:36.829Z,59.00
2019-03-08T15:17:09.178Z,60.75
2019-03-08T15:19:36.225Z,61.54
2019-03-08T15:22:07.949Z,62.32
2019-03-08T15:24:38.487Z,64.06
2019-03-08T15:27:05.010Z,67.03
2019-03-08T15:29:32.939Z,72.21
2019-03-08T15:32:00.594Z,76.57
2019-03-08T15:34:28.231Z,77.46
2019-03-08T15:36:55.860Z,78.79
2019-03-08T15:39:23.494Z,78.54
2019-03-08T15:41:51.277Z,80.93
2019-03-08T15:44:19.203Z,81.82
2019-03-08T15:46:46.859Z,80.97
2019-03-08T15:49:14.520Z,80.92
2019-03-08T15:51:42.245Z,80.19
2019-03-08T15:54:09.956Z,79.73
2019-03-08T15:56:37.699Z,78.47
2019-03-08T15:59:05.755Z,78.69
2019-03-08T16:01:33.455Z,79.01
2019-03-08T16:04:01.095Z,79.56
2019-03-08T16:06:28.733Z,79.28
2019-03-08T16:08:56.370Z,80.18
2019-03-08T16:11:24.023Z,80.63
2019-03-08T16:13:52.047Z,79.89
2019-03-08T16:16:19.678Z,80.71
2019-03-08T16:18:48.244Z,78.35
2019-03-08T16:21:15.980Z,78.14
2019-03-08T16:23:43.610Z,77.64
2019-03-08T16:26:11.262Z,77.75
2019-03-08T16:28:38.897Z,77.87
2019-03-08T16:31:13.259Z,78.24
2019-03-08T16:33:44.016Z,78.02
2019-03-08T16:36:16.979Z,76.80
2019-03-08T16:38:50.807Z,77.07
2019-03-08T16:41:23.744Z,77.16
2019-03-08T16:44:00.886Z,77.74
2019-03-08T16:46:38.250Z,76.06
2019-03-08T16:49:18.183Z,78.24
2019-03-08T16:52:00.182Z,77.82
2019-03-08T16:54:35.453Z,75.97
2019-03-08T16:57:11.316Z,74.96
2019-03-08T16:59:51.368Z,76.08
2019-03-08T17:02:25.894Z,76.72
2019-03-08T17:05:00.416Z,76.02
2019-03-08T17:07:35.572Z,76.12
2019-03-08T17:10:10.968Z,76.33
2019-03-08T17:12:46.545Z,77.06
2019-03-08T17:15:27.536Z,76.73
2019-03-08T17:18:15.127Z,77.38
2019-03-08T17:20:50.921Z,77.07
2019-03-08T17:23:26.955Z,77.47
2019-03-08T17:26:03.445Z,77.56
2019-03-08T17:28:38.866Z,78.05
2019-03-08T17:31:12.679Z,78.17
2019-03-08T17:33:59.359Z,79.27
2019-03-08T17:36:34.952Z,80.60
2019-03-08T17:39:12.018Z,80.25
2019-03-08T17:41:53.103Z,80.07
2019-03-08T17:44:30.494Z,80.49
2019-03-08T17:47:06.665Z,80.09
2019-03-08T17:49:54.298Z,80.32
2019-03-08T17:52:31.267Z,80.24
2019-03-08T17:55:09.476Z,80.72
2019-03-08T17:57:57.086Z,80.05
2019-03-08T18:00:30.102Z,80.25
2019-03-08T18:03:07.682Z,79.87
2019-03-08T18:05:54.381Z,79.40
2019-03-08T18:08:28.182Z,79.78
2019-03-08T18:11:01.320Z,78.87
2019-03-08T18:13:36.738Z,80.23
2019-03-08T18:16:09.707Z,79.70
2019-03-08T18:18:42.728Z,79.06
2019-03-08T18:21:23.595Z,79.26
2019-03-08T18:24:00.259Z,79.24
2019-03-08T18:26:36.459Z,78.28
2019-03-08T18:29:15.140Z,79.31
2019-03-08T18:32:05.664Z,79.84
2019-03-08T18:34:43.067Z,79.40
2019-03-08T18:37:23.391Z,80.88
2019-03-08T18:40:09.493Z,80.15
2019-03-08T18:42:52.418Z,79.31
2019-03-08T18:45:41.035Z,79.44
2019-03-08T18:48:17.019Z,77.70
2019-03-08T18:51:06.763Z,76.99
2019-03-08T18:53:41.837Z,76.75
2019-03-08T18:56:19.046Z,75.68
2019-03-08T18:58:53.677Z,75.46
2019-03-08T19:01:45.488Z,75.53
2019-03-08T19:04:32.166Z,75.91
2019-03-08T19:07:09.067Z,77.61
2019-03-08T19:09:45.526Z,78.62
2019-03-08T19:12:32.215Z,78.96
2019-03-08T19:15:16.874Z,78.58
2019-03-08T19:17:52.245Z,78.48
2019-03-08T19:20:41.902Z,78.34
2019-03-08T19:23:14.403Z,78.72
2019-03-08T19:25:56.709Z,78.92
2019-03-08T19:28:34.923Z,77.96
2019-03-08T19:31:11.995Z,76.89
2019-03-08T19:33:51.550Z,75.92
2019-03-08T19:36:38.241Z,76.33
2019-03-08T19:39:24.933Z,78.58
2019-03-08T19:42:02.842Z,79.42
2019-03-08T19:44:41.266Z,77.86
2019-03-08T19:47:15.911Z,77.36
2019-03-08T19:50:02.590Z,79.82
2019-03-08T19:52:37.746Z,78.27
2019-03-08T19:55:12.277Z,77.58
2019-03-08T19:57:54.241Z,78.78
2019-03-08T20:00:28.887Z,77.46
2019-03-08T20:03:01.734Z,76.93
2019-03-08T20:05:34.791Z,77.96
2019-03-08T20:08:16.455Z,77.68
2019-03-08T20:10:53.955Z,75.33
2019-03-08T20:13:30.527Z,74.63
2019-03-08T20:16:17.236Z,75.22
2019-03-08T20:18:54.618Z,74.27
2019-03-08T20:21:29.963Z,75.73
2019-03-08T20:24:04.178Z,74.14
2019-03-08T20:26:41.879Z,74.74
2019-03-08T20:29:16.625Z,76.16
2019-03-08T20:31:49.395Z,76.05
2019-03-08T20:34:25.049Z,75.87
2019-03-08T20:37:05.510Z,75.20
2019-03-08T20:39:42.482Z,75.87
2019-03-08T20:42:18.793Z,75.38
2019-03-08T20:44:51.110Z,75.28
2019-03-08T20:47:23.907Z,75.03
2019-03-08T20:49:51.564Z,75.90
2019-03-08T20:52:19.496Z,77.01
2019-03-08T20:54:47.158Z,77.36
2019-03-08T20:57:14.811Z,76.59
2019-03-08T20:59:42.454Z,76.59
2019-03-08T21:02:10.102Z,76.49
2019-03-08T21:04:37.740Z,77.32
2019-03-08T21:07:05.665Z,76.87
2019-03-08T21:09:33.421Z,76.87
2019-03-08T21:12:01.063Z,76.60
2019-03-08T21:14:28.699Z,75.60
2019-03-08T21:16:56.344Z,74.01
2019-03-08T21:19:23.995Z,73.83
2019-03-08T21:21:51.811Z,74.58
2019-03-08T21:24:19.461Z,73.39
2019-03-08T21:26:47.146Z,73.33
2019-03-08T21:29:14.796Z,72.77
2019-03-08T21:31:42.431Z,72.39
2019-03-08T21:34:10.070Z,73.59
2019-03-08T21:36:37.908Z,74.11
2019-03-08T21:39:05.570Z,73.75
2019-03-08T21:41:33.215Z,73.29
2019-03-08T21:44:00.936Z,73.50
2019-03-08T21:46:28.592Z,72.76
2019-03-08T21:48:56.240Z,73.04
2019-03-08T21:51:23.880Z,73.62
2019-03-08T21:53:51.522Z,73.89
2019-03-08T21:56:19.278Z,74.38
2019-03-08T21:58:47.120Z,74.33
2019-03-08T22:01:14.780Z,73.86
2019-03-08T22:03:44.111Z,73.46
2019-03-08T22:06:11.743Z,74.68
2019-03-08T22:08:46.308Z,73.89
2019-03-08T22:11:15.352Z,73.56
2019-03-08T22:13:43.005Z,73.20
2019-03-08T22:16:10.766Z,71.93
2019-03-08T22:18:38.413Z,73.12
2019-03-08T22:21:06.140Z,71.93
2019-03-08T22:23:33.786Z,71.65
2019-03-08T22:26:01.428Z,71.58
2019-03-08T22:28:29.080Z,70.14
2019-03-08T22:30:56.754Z,71.31
2019-03-08T22:33:24.411Z,71.40
2019-03-08T22:35:52.062Z,71.45
2019-03-08T22:38:19.711Z,70.89
2019-03-08T22:40:47.352Z,70.74
2019-03-08T22:43:14.997Z,70.03
2019-03-08T22:45:42.629Z,69.63
2019-03-08T22:48:10.291Z,69.89
2019-03-08T22:50:37.938Z,71.31
2019-03-08T22:53:05.577Z,69.95
2019-03-08T22:55:33.222Z,68.94
2019-03-08T22:58:00.868Z,70.71
2019-03-08T23:00:30.179Z,69.83
2019-03-08T23:02:57.819Z,69.86
2019-03-08T23:05:25.459Z,70.10
2019-03-08T23:07:53.108Z,70.31
2019-03-08T23:10:20.759Z,69.49
2019-03-08T23:12:48.592Z,69.85
2019-03-08T23:15:16.524Z,68.77
2019-03-08T23:17:44.191Z,69.92
2019-03-08T23:20:11.826Z,70.71
2019-03-08T23:22:39.480Z,70.67
2019-03-08T23:25:07.166Z,70.51
2019-03-08T23:27:39.960Z,71.24
2019-03-08T23:30:16.023Z,70.85
2019-03-08T23:32:47.598Z,69.78
2019-03-08T23:35:15.238Z,71.10
2019-03-08T23:37:42.871Z,70.03
2019-03-08T23:40:10.796Z,70.56
2019-03-08T23:42:38.425Z,70.74
2019-03-08T23:45:06.069Z,70.50
2019-03-08T23:47:33.731Z,70.41
2019-03-08T23:50:01.374Z,69.23
2019-03-08T23:52:29.015Z,69.75
2019-03-08T23:54:56.880Z,70.13
2019-03-08T23:57:24.557Z,69.84
2019-03-08T23:59:52.206Z,69.78
